Time;durP1;ratioP1;P1;durP2;ratioP2;P2;SDS_P1;SDS_P2;PMS_P1;PMS_P2;Temp;Humidity;BMP_temperature;BMP_pressure;BME280_temperature;BME280_humidity;BME280_pressure;Samples;Min_cycle;Max_cycle;Signal;HPM_P1;HPM_P2
2021/04/26 00:01:12;;;;;;;4.65;2.22;;;10.20;50.50;;;;;;5092840;28;20131;-78
2021/04/26 00:03:40;;;;;;;4.78;2.08;;;10.10;51.40;;;;;;5092789;28;20048;-79
2021/04/26 00:06:07;;;;;;;4.88;2.30;;;10.20;52.10;;;;;;5092737;28;20483;-79
2021/04/26 00:08:33;;;;;;;4.57;2.00;;;10.20;52.20;;;;;;5092589;28;20086;-80
2021/04/26 00:11:00;;;;;;;5.00;2.33;;;10.20;52.10;;;;;;5092358;28;20094;-78
2021/04/26 00:13:27;;;;;;;4.82;2.20;;;10.30;51.80;;;;;;5092240;28;20155;-80
2021/04/26 00:15:54;;;;;;;7.32;2.28;;;10.10;51.40;;;;;;5092763;28;20127;-80
2021/04/26 00:18:21;;;;;;;5.30;2.38;;;10.10;51.20;;;;;;5092246;28;20127;-80
2021/04/26 00:20:48;;;;;;;4.75;2.15;;;9.90;51.40;;;;;;5092373;28;20083;-79
2021/04/26 00:23:15;;;;;;;6.22;2.38;;;9.90;51.10;;;;;;5092708;28;20083;-80
2021/04/26 00:25:42;;;;;;;5.88;2.47;;;9.70;51.40;;;;;;5092322;28;20087;-80
2021/04/26 00:28:09;;;;;;;5.85;2.13;;;9.70;51.60;;;;;;5091978;28;20048;-79
2021/04/26 00:30:36;;;;;;;7.10;2.20;;;9.40;52.10;;;;;;5092184;28;20543;-80
2021/04/26 00:33:03;;;;;;;5.38;2.47;;;9.30;52.30;;;;;;5091994;28;20071;-80
2021/04/26 00:35:30;;;;;;;5.38;2.00;;;9.30;52.80;;;;;;5092210;28;20348;-79
2021/04/26 00:37:57;;;;;;;7.25;2.30;;;9.00;53.80;;;;;;5086871;28;20140;-80
2021/04/26 00:40:25;;;;;;;4.25;1.92;;;9.30;53.20;;;;;;5073391;28;20137;-82
2021/04/26 00:42:53;;;;;;;6.15;2.40;;;9.00;53.30;;;;;;5091991;28;20106;-80
2021/04/26 00:45:24;;;;;;;6.07;2.55;;;9.20;53.70;;;;;;5091726;28;20131;-79
2021/04/26 00:47:51;;;;;;;7.20;2.50;;;9.20;53.70;;;;;;5091618;28;20561;-80
2021/04/26 00:50:23;;;;;;;4.95;2.15;;;9.20;54.00;;;;;;5091915;28;20086;-79
2021/04/26 00:52:51;;;;;;;5.15;2.40;;;9.10;54.00;;;;;;5092127;28;20137;-80
2021/04/26 00:55:22;;;;;;;4.93;2.30;;;9.10;54.00;;;;;;5091984;28;20493;-79
2021/04/26 00:57:48;;;;;;;5.30;2.20;;;9.10;54.20;;;;;;5094138;28;20503;-79
2021/04/26 01:00:17;;;;;;;4.68;2.17;;;9.10;54.50;;;;;;5094310;28;20086;-78
2021/04/26 01:02:44;;;;;;;4.80;2.20;;;9.00;54.60;;;;;;5093303;28;20127;-79
2021/04/26 01:05:14;;;;;;;5.30;2.33;;;8.90;54.60;;;;;;5094748;28;20083;-79
2021/04/26 01:07:42;;;;;;;4.68;2.25;;;9.00;55.10;;;;;;5094176;28;20524;-78
2021/04/26 01:10:13;;;;;;;4.40;2.00;;;9.10;55.30;;;;;;5094282;28;20523;-78
2021/04/26 01:13:19;;;;;;;6.88;2.30;;;8.90;55.40;;;;;;5093535;28;20044;-79
2021/04/26 01:15:57;;;;;;;3.53;1.80;;;8.80;55.90;;;;;;5070532;28;20497;-79
2021/04/26 01:18:32;;;;;;;5.45;2.42;;;8.80;56.70;;;;;;5072813;28;20517;-78
2021/04/26 01:21:37;;;;;;;6.90;2.40;;;8.90;57.30;;;;;;5073872;28;20108;-79
2021/04/26 01:24:43;;;;;;;4.50;2.20;;;8.90;57.70;;;;;;5073923;28;20072;-80
2021/04/26 01:27:18;;;;;;;6.07;2.20;;;9.00;58.60;;;;;;5085757;28;20091;-79
2021/04/26 01:30:10;;;;;;;7.00;2.40;;;9.00;58.10;;;;;;5093782;28;20154;-79
2021/04/26 01:32:42;;;;;;;5.65;2.30;;;9.00;57.40;;;;;;5093995;28;20087;-79
2021/04/26 01:35:13;;;;;;;5.57;2.30;;;9.00;57.20;;;;;;5093599;28;20135;-80
2021/04/26 01:37:42;;;;;;;6.03;2.30;;;8.90;57.50;;;;;;5093620;28;20044;-79
2021/04/26 01:40:13;;;;;;;6.95;2.35;;;8.90;57.80;;;;;;5093588;28;20048;-87
2021/04/26 01:42:45;;;;;;;6.22;2.40;;;8.90;58.20;;;;;;5093970;28;20107;-80
2021/04/26 01:45:16;;;;;;;6.28;2.20;;;8.80;58.30;;;;;;5093216;28;20130;-79
2021/04/26 01:47:46;;;;;;;4.88;2.10;;;8.80;59.00;;;;;;5093379;28;20102;-79
2021/04/26 01:50:15;;;;;;;5.63;2.63;;;8.90;59.30;;;;;;5093506;28;20048;-78
2021/04/26 01:52:42;;;;;;;4.78;1.83;;;8.90;58.70;;;;;;5093429;28;20048;-77
2021/04/26 01:55:12;;;;;;;6.55;2.58;;;8.90;58.70;;;;;;5092383;28;20079;-79
2021/04/26 01:57:42;;;;;;;7.53;2.53;;;8.90;58.70;;;;;;5093371;28;20373;-79
2021/04/26 02:00:17;;;;;;;4.90;2.47;;;8.80;58.70;;;;;;5093121;28;20044;-79
2021/04/26 02:02:45;;;;;;;;;;;8.80;59.30;;;;;;5093340;28;20087;-79
2021/04/26 02:05:14;;;;;;;4.90;2.20;;;8.70;60.40;;;;;;5093444;28;20019;-79
2021/04/26 02:07:45;;;;;;;5.47;2.42;;;8.80;59.80;;;;;;5092875;28;20152;-79
2021/04/26 02:10:13;;;;;;;5.13;2.60;;;8.70;59.60;;;;;;5093582;28;20148;-79
2021/04/26 02:12:42;;;;;;;5.22;2.35;;;8.70;59.90;;;;;;5093393;28;20081;-79
2021/04/26 02:15:12;;;;;;;7.70;2.53;;;8.60;59.90;;;;;;5093466;28;20052;-80
2021/04/26 02:17:40;;;;;;;5.50;2.80;;;8.60;60.00;;;;;;5092528;28;20056;-80
2021/04/26 02:20:10;;;;;;;5.20;2.38;;;8.40;60.50;;;;;;5093796;28;20127;-80
2021/04/26 02:22:37;;;;;;;5.72;2.50;;;8.40;61.10;;;;;;5093325;28;20098;-79
2021/04/26 02:25:08;;;;;;;6.85;2.85;;;8.40;61.50;;;;;;5096674;28;20083;-80
2021/04/26 02:27:34;;;;;;;6.82;2.60;;;8.40;61.30;;;;;;5096667;28;20488;-78
2021/04/26 02:30:01;;;;;;;6.38;2.83;;;8.40;61.30;;;;;;5097304;28;20072;-78
2021/04/26 02:32:32;;;;;;;6.78;2.92;;;8.40;61.40;;;;;;5096808;28;20048;-79
2021/04/26 02:35:01;;;;;;;9.02;3.17;;;8.40;61.60;;;;;;5096251;28;20151;-80
2021/04/26 02:37:35;;;;;;;5.50;2.70;;;8.40;61.60;;;;;;5096940;28;20472;-78
2021/04/26 02:40:07;;;;;;;6.22;2.50;;;8.40;62.30;;;;;;5096950;28;20135;-80
2021/04/26 02:42:36;;;;;;;6.53;2.97;;;8.40;62.60;;;;;;5096895;28;20578;-78
2021/04/26 02:45:04;;;;;;;5.35;2.80;;;8.40;62.40;;;;;;5097148;28;20077;-78
2021/04/26 02:47:32;;;;;;;6.18;3.05;;;8.30;62.20;;;;;;5096585;28;20076;-78
2021/04/26 02:50:04;;;;;;;7.45;2.70;;;8.40;62.60;;;;;;5097019;28;20075;-78
2021/04/26 02:52:32;;;;;;;6.15;2.95;;;8.30;62.90;;;;;;5096906;28;20125;-79
2021/04/26 02:55:03;;;;;;;4.45;2.53;;;8.20;63.30;;;;;;5096854;28;20082;-80
2021/04/26 02:57:34;;;;;;;7.18;2.97;;;8.30;63.50;;;;;;5096960;28;20083;-79
2021/04/26 03:00:04;;;;;;;6.75;3.15;;;8.30;64.50;;;;;;5096711;28;20087;-80
2021/04/26 03:02:32;;;;;;;7.95;2.97;;;8.20;64.20;;;;;;5095433;28;20051;-80
2021/04/26 03:04:59;;;;;;;5.50;2.67;;;8.30;64.00;;;;;;5094247;28;20458;-79
2021/04/26 03:07:28;;;;;;;7.18;3.47;;;8.20;64.20;;;;;;5094223;28;20150;-78
2021/04/26 03:09:56;;;;;;;7.22;3.17;;;8.10;64.10;;;;;;5094459;28;20125;-79
2021/04/26 03:12:23;;;;;;;6.25;2.90;;;8.10;64.40;;;;;;5094410;28;20159;-79
2021/04/26 03:14:51;;;;;;;8.73;3.20;;;7.90;65.30;;;;;;5094422;28;20132;-78
2021/04/26 03:17:18;;;;;;;7.18;3.35;;;8.10;65.70;;;;;;5093928;28;20052;-81
2021/04/26 03:19:45;;;;;;;6.60;3.30;;;7.90;65.40;;;;;;5094060;28;20541;-80
2021/04/26 03:22:13;;;;;;;8.15;3.22;;;7.80;67.00;;;;;;5093809;28;20134;-78
2021/04/26 03:24:40;;;;;;;6.90;3.10;;;7.80;67.00;;;;;;5093801;28;20075;-81
2021/04/26 03:27:08;;;;;;;7.75;3.40;;;7.90;67.30;;;;;;5093422;28;20520;-79
2021/04/26 03:29:36;;;;;;;7.50;3.20;;;7.90;67.40;;;;;;5093599;28;20561;-79
2021/04/26 03:32:03;;;;;;;5.75;3.20;;;8.00;67.00;;;;;;5093909;28;20076;-79
2021/04/26 03:34:31;;;;;;;7.78;2.90;;;8.00;66.60;;;;;;5093411;28;20553;-78
2021/04/26 03:36:58;;;;;;;6.13;2.80;;;8.00;66.70;;;;;;5093920;28;20134;-79
2021/04/26 03:39:24;;;;;;;5.07;2.72;;;7.90;66.60;;;;;;5092172;28;20083;-79
2021/04/26 03:41:51;;;;;;;5.22;2.70;;;7.80;66.70;;;;;;5093781;28;20086;-79
2021/04/26 03:44:19;;;;;;;5.85;2.97;;;7.80;67.60;;;;;;5093501;28;20087;-79
2021/04/26 03:46:55;;;;;;;5.78;3.17;;;7.70;67.20;;;;;;5093108;28;20925;-79
2021/04/26 03:49:22;;;;;;;5.82;3.00;;;7.80;67.40;;;;;;5094040;28;20166;-78
2021/04/26 03:51:49;;;;;;;4.90;2.78;;;7.60;67.50;;;;;;5093691;28;20043;-78
2021/04/26 03:54:16;;;;;;;8.48;2.90;;;7.60;67.70;;;;;;5093137;28;20101;-78
2021/04/26 03:56:43;;;;;;;6.28;3.47;;;7.60;68.30;;;;;;5093034;28;20151;-78
2021/04/26 03:59:11;;;;;;;5.78;2.78;;;7.50;68.60;;;;;;5093392;28;20348;-78
2021/04/26 04:01:38;;;;;;;7.15;2.80;;;7.60;68.70;;;;;;5092209;28;20096;-78
2021/04/26 04:04:06;;;;;;;6.00;2.97;;;7.50;68.20;;;;;;5093054;28;20087;-78
2021/04/26 04:06:33;;;;;;;8.18;3.60;;;7.40;69.00;;;;;;5093141;28;20138;-78
2021/04/26 04:08:59;;;;;;;6.18;3.13;;;7.40;68.60;;;;;;5093300;28;20044;-78
2021/04/26 04:11:26;;;;;;;7.30;3.38;;;7.20;69.10;;;;;;5093073;28;20144;-78
2021/04/26 04:13:53;;;;;;;7.22;3.80;;;7.10;69.80;;;;;;5092902;28;20075;-78
2021/04/26 04:16:19;;;;;;;6.82;3.17;;;7.00;70.30;;;;;;5092607;28;20127;-78
2021/04/26 04:18:47;;;;;;;6.45;3.28;;;7.00;71.30;;;;;;5093000;28;20135;-78
2021/04/26 04:21:14;;;;;;;7.22;3.38;;;6.90;71.60;;;;;;5092755;28;20078;-78
2021/04/26 04:23:40;;;;;;;9.43;4.25;;;6.90;72.40;;;;;;5092492;28;20052;-79
2021/04/26 04:26:08;;;;;;;8.38;4.10;;;6.90;72.90;;;;;;5093399;28;20071;-83
2021/04/26 04:28:35;;;;;;;8.05;4.05;;;7.00;72.70;;;;;;5092362;28;20131;-78
2021/04/26 04:31:02;;;;;;;8.02;3.97;;;7.00;72.90;;;;;;5092092;28;20531;-78
2021/04/26 04:33:29;;;;;;;7.18;3.78;;;7.00;73.30;;;;;;5092674;28;20320;-78
2021/04/26 04:35:57;;;;;;;8.20;4.32;;;7.10;73.20;;;;;;5092467;28;20155;-77
2021/04/26 04:38:25;;;;;;;8.27;4.38;;;7.20;72.90;;;;;;5092505;28;20093;-77
2021/04/26 04:40:52;;;;;;;7.32;4.20;;;7.20;72.80;;;;;;5090759;28;20459;-78
2021/04/26 04:43:19;;;;;;;7.95;4.30;;;7.20;72.60;;;;;;5092213;28;20080;-78
2021/04/26 04:45:45;;;;;;;7.75;3.83;;;7.20;72.50;;;;;;5091789;28;20106;-78
2021/04/26 04:48:12;;;;;;;8.02;4.28;;;7.20;72.50;;;;;;5091944;28;20494;-78
2021/04/26 04:50:38;;;;;;;7.93;3.90;;;7.20;72.30;;;;;;5091856;28;20070;-78
2021/04/26 04:53:06;;;;;;;6.65;3.70;;;7.10;73.00;;;;;;5091870;28;20171;-78
2021/04/26 04:55:33;;;;;;;6.60;3.58;;;7.10;73.30;;;;;;5092895;28;20047;-82
2021/04/26 04:57:59;;;;;;;7.10;3.70;;;7.10;73.90;;;;;;5091514;28;20071;-82
2021/04/26 05:00:27;;;;;;;6.82;3.70;;;7.10;74.60;;;;;;5072467;28;20135;-82
2021/04/26 05:02:53;;;;;;;6.22;3.53;;;7.20;74.80;;;;;;5071380;28;20555;-82
2021/04/26 05:05:20;;;;;;;6.40;3.65;;;7.20;75.20;;;;;;5074119;28;20097;-78
2021/04/26 05:07:46;;;;;;;8.35;3.55;;;7.30;74.80;;;;;;5085089;28;20056;-81
2021/04/26 05:10:14;;;;;;;9.30;4.00;;;7.40;74.60;;;;;;5074011;28;20079;-79
2021/04/26 05:12:41;;;;;;;8.90;3.97;;;7.40;74.10;;;;;;5079235;28;20069;-79
2021/04/26 05:15:09;;;;;;;6.80;4.13;;;7.50;73.10;;;;;;5077730;28;20094;-79
2021/04/26 05:17:36;;;;;;;6.82;3.85;;;7.50;73.20;;;;;;5071133;28;20483;-80
2021/04/26 05:20:05;;;;;;;7.60;3.45;;;7.50;73.40;;;;;;5071693;28;20124;-79
2021/04/26 05:22:34;;;;;;;7.05;3.47;;;7.50;73.40;;;;;;5071467;28;20565;-80
2021/04/26 05:25:02;;;;;;;7.68;3.83;;;7.50;73.20;;;;;;5086194;28;20045;-80
2021/04/26 05:27:31;;;;;;;8.20;3.55;;;7.60;73.40;;;;;;5071496;28;20044;-80
2021/04/26 05:29:57;;;;;;;6.90;4.00;;;7.70;73.30;;;;;;5053106;28;20056;-80
2021/04/26 05:32:24;;;;;;;7.75;3.75;;;7.60;73.20;;;;;;5069742;28;20106;-79
2021/04/26 05:34:51;;;;;;;9.40;4.05;;;7.60;73.30;;;;;;5069219;28;20410;-78
2021/04/26 05:37:18;;;;;;;8.05;3.80;;;7.70;72.70;;;;;;5069475;28;20518;-78
2021/04/26 05:39:45;;;;;;;8.63;3.78;;;7.60;72.60;;;;;;5069615;28;20088;-78
2021/04/26 05:42:11;;;;;;;8.55;4.30;;;7.60;71.70;;;;;;5075640;28;20286;-79
2021/04/26 05:44:39;;;;;;;8.02;4.00;;;7.60;71.90;;;;;;5092968;28;20071;-79
2021/04/26 05:47:05;;;;;;;7.47;3.70;;;7.70;72.00;;;;;;5091022;28;20182;-79
2021/04/26 05:49:32;;;;;;;6.47;3.60;;;7.70;71.10;;;;;;5073479;28;20156;-80
2021/04/26 05:51:59;;;;;;;8.75;4.10;;;7.70;71.60;;;;;;5095617;28;20401;-79
2021/04/26 05:54:26;;;;;;;9.45;4.20;;;7.70;72.00;;;;;;5114190;28;20051;-79
2021/04/26 05:56:53;;;;;;;7.65;4.03;;;7.80;72.40;;;;;;5104345;28;20083;-79
2021/04/26 05:59:20;;;;;;;8.52;4.13;;;7.80;72.00;;;;;;5100815;28;20043;-79
2021/04/26 06:01:48;;;;;;;9.00;4.63;;;7.90;71.20;;;;;;5097104;28;20462;-80
2021/04/26 06:04:14;;;;;;;10.00;4.20;;;8.10;70.60;;;;;;5102438;28;20134;-79
2021/04/26 06:06:41;;;;;;;7.60;4.15;;;8.10;70.30;;;;;;5113520;28;20089;-78
2021/04/26 06:09:08;;;;;;;9.27;4.25;;;8.10;69.50;;;;;;5101682;28;20498;-80
2021/04/26 06:11:35;;;;;;;10.43;4.93;;;8.00;69.40;;;;;;5081665;28;20494;-78
2021/04/26 06:14:01;;;;;;;10.77;4.85;;;8.00;69.90;;;;;;5072907;28;20098;-78
2021/04/26 06:16:28;;;;;;;9.57;4.75;;;7.90;69.80;;;;;;5090012;28;20083;-77
2021/04/26 06:18:55;;;;;;;10.82;4.82;;;8.10;69.40;;;;;;5092106;28;20151;-80
2021/04/26 06:21:22;;;;;;;9.18;4.22;;;8.00;68.90;;;;;;5092940;28;20473;-80
2021/04/26 06:23:48;;;;;;;9.18;4.35;;;8.20;68.50;;;;;;5092808;28;20127;-80
2021/04/26 06:26:15;;;;;;;10.40;4.40;;;8.10;69.50;;;;;;5093274;28;20135;-81
2021/04/26 06:28:42;;;;;;;9.55;4.60;;;8.30;69.10;;;;;;5092810;28;20113;-81
2021/04/26 06:31:08;;;;;;;7.80;4.10;;;8.30;68.50;;;;;;5086687;28;20083;-78
2021/04/26 06:33:35;;;;;;;8.90;4.30;;;8.30;68.90;;;;;;5092955;28;20150;-79
2021/04/26 06:36:03;;;;;;;7.88;4.45;;;8.40;69.10;;;;;;5096428;28;20112;-79
2021/04/26 06:38:29;;;;;;;8.35;4.00;;;8.30;69.00;;;;;;5091069;28;20077;-81
2021/04/26 06:40:56;;;;;;;8.43;4.40;;;8.40;68.80;;;;;;5093128;28;20084;-81
2021/04/26 06:43:23;;;;;;;8.10;4.22;;;8.40;68.70;;;;;;5085442;28;20134;-82
2021/04/26 06:45:49;;;;;;;9.77;4.63;;;8.50;68.30;;;;;;5092010;28;20422;-77
2021/04/26 06:48:17;;;;;;;11.00;4.18;;;8.60;68.00;;;;;;5073314;28;20553;-77
2021/04/26 06:50:48;;;;;;;9.02;3.95;;;8.60;67.70;;;;;;5085788;28;20405;-79
2021/04/26 06:53:16;;;;;;;9.90;4.30;;;8.70;67.60;;;;;;5092589;28;20048;-79
2021/04/26 06:55:43;;;;;;;8.43;4.07;;;8.70;67.40;;;;;;5092569;28;20048;-81
2021/04/26 06:58:11;;;;;;;8.63;4.28;;;8.70;66.90;;;;;;5092416;28;20101;-79
2021/04/26 07:00:38;;;;;;;7.80;4.13;;;8.80;66.40;;;;;;5087166;28;20086;-80
2021/04/26 07:03:06;;;;;;;8.38;4.72;;;8.70;65.80;;;;;;5090610;28;20043;-79
2021/04/26 07:05:33;;;;;;;8.32;4.10;;;8.90;65.00;;;;;;5075056;28;20078;-80
2021/04/26 07:08:01;;;;;;;8.25;3.95;;;8.80;65.60;;;;;;5089360;28;20131;-79
2021/04/26 07:10:30;;;;;;;6.75;3.60;;;8.80;66.50;;;;;;5103480;28;20101;-79
2021/04/26 07:12:57;;;;;;;6.80;3.70;;;8.90;66.40;;;;;;5094846;28;20048;-79
2021/04/26 07:15:23;;;;;;;7.35;4.43;;;8.90;67.30;;;;;;5087080;28;20048;-77
2021/04/26 07:17:50;;;;;;;6.22;3.90;;;9.00;65.60;;;;;;5086047;28;20090;-78
2021/04/26 07:20:17;;;;;;;6.75;4.00;;;9.00;65.20;;;;;;5104429;28;20118;-77
2021/04/26 07:22:46;;;;;;;9.85;4.47;;;9.10;66.10;;;;;;5103383;28;20055;-78
2021/04/26 07:25:14;;;;;;;9.05;4.60;;;9.20;65.60;;;;;;5110227;28;20502;-79
2021/04/26 07:27:44;;;;;;;7.03;3.83;;;9.20;65.80;;;;;;5078874;28;20079;-80
2021/04/26 07:30:12;;;;;;;7.90;4.00;;;9.20;65.90;;;;;;5092662;28;20186;-78
2021/04/26 07:32:40;;;;;;;8.10;4.10;;;9.30;66.20;;;;;;5096034;28;20079;-79
2021/04/26 07:35:11;;;;;;;9.27;4.40;;;9.30;65.90;;;;;;5095493;28;20078;-79
2021/04/26 07:37:38;;;;;;;7.53;4.30;;;9.30;66.10;;;;;;5092998;28;20070;-81
2021/04/26 07:40:08;;;;;;;7.97;4.13;;;9.40;66.10;;;;;;5094987;28;20053;-82
2021/04/26 07:42:35;;;;;;;8.60;3.95;;;9.50;64.50;;;;;;5091291;28;20079;-78
2021/04/26 07:45:04;;;;;;;7.45;4.35;;;9.40;64.90;;;;;;5101811;28;20083;-79
2021/04/26 07:47:31;;;;;;;7.97;4.10;;;9.50;64.60;;;;;;5102818;27;20456;-78
2021/04/26 07:49:57;;;;;;;8.88;5.50;;;9.60;64.60;;;;;;5080393;28;20075;-80
2021/04/26 07:52:24;;;;;;;10.07;4.38;;;9.60;64.30;;;;;;5095423;28;20051;-75
2021/04/26 07:54:51;;;;;;;8.80;3.92;;;9.70;64.80;;;;;;5081769;28;20064;-78
2021/04/26 07:57:20;;;;;;;9.30;4.55;;;9.70;64.40;;;;;;5075413;28;20470;-77
2021/04/26 07:59:47;;;;;;;8.05;4.07;;;9.90;63.80;;;;;;5075092;28;20044;-77
2021/04/26 08:02:15;;;;;;;8.57;4.00;;;9.90;64.10;;;;;;5075369;28;20098;-77
2021/04/26 08:04:41;;;;;;;7.75;4.28;;;9.90;63.60;;;;;;5079948;28;20127;-79
2021/04/26 08:07:08;;;;;;;7.57;3.70;;;10.10;63.30;;;;;;5097798;28;20124;-79
2021/04/26 08:09:36;;;;;;;6.95;4.07;;;10.20;63.40;;;;;;5094196;28;20127;-80
2021/04/26 08:12:04;;;;;;;7.95;4.28;;;10.20;63.10;;;;;;5081048;28;20462;-80
2021/04/26 08:14:31;;;;;;;8.88;4.65;;;10.20;63.10;;;;;;5097551;28;20075;-80
2021/04/26 08:16:58;;;;;;;7.90;4.18;;;10.40;62.00;;;;;;5102837;28;20077;-79
2021/04/26 08:19:26;;;;;;;6.30;3.78;;;10.50;62.30;;;;;;5093764;28;20102;-79
2021/04/26 08:21:53;;;;;;;7.95;4.13;;;10.40;62.30;;;;;;5093702;28;20060;-79
2021/04/26 08:24:20;;;;;;;7.80;4.30;;;10.60;62.80;;;;;;5085133;28;20049;-76
2021/04/26 08:26:47;;;;;;;7.55;4.57;;;10.60;61.40;;;;;;5077038;28;20517;-78
2021/04/26 08:29:14;;;;;;;10.30;4.32;;;10.70;62.10;;;;;;5094419;28;20051;-79
2021/04/26 08:31:41;;;;;;;7.43;3.60;;;10.80;61.60;;;;;;5094546;28;20512;-78
2021/04/26 08:34:08;;;;;;;8.20;4.20;;;10.70;61.60;;;;;;5094245;28;20051;-79
2021/04/26 08:36:36;;;;;;;9.20;4.53;;;10.90;61.30;;;;;;5094850;28;20074;-79
2021/04/26 08:39:04;;;;;;;10.15;4.97;;;11.00;60.40;;;;;;5094238;28;20047;-79
2021/04/26 08:41:32;;;;;;;8.70;4.20;;;11.00;59.90;;;;;;5092501;28;20475;-78
2021/04/26 08:43:59;;;;;;;8.65;4.15;;;11.10;60.40;;;;;;5093870;28;20076;-78
2021/04/26 08:46:26;;;;;;;9.10;3.95;;;11.10;60.70;;;;;;5094914;28;20105;-77
2021/04/26 08:48:53;;;;;;;8.93;4.80;;;11.10;60.20;;;;;;5095008;28;20562;-81
2021/04/26 08:51:20;;;;;;;8.55;4.32;;;11.20;60.00;;;;;;5094730;28;20048;-80
2021/04/26 08:53:49;;;;;;;7.93;4.20;;;11.20;60.30;;;;;;5092944;28;20079;-80
2021/04/26 08:56:16;;;;;;;8.13;4.80;;;11.30;59.80;;;;;;5094260;28;20555;-81
2021/04/26 08:58:43;;;;;;;6.97;3.42;;;11.40;59.00;;;;;;5094229;28;20055;-80
2021/04/26 09:01:09;;;;;;;9.90;4.50;;;11.50;59.50;;;;;;5094425;28;20117;-79
2021/04/26 09:03:38;;;;;;;8.60;4.03;;;11.40;59.40;;;;;;5094525;28;20083;-80
2021/04/26 09:06:07;;;;;;;8.63;4.45;;;11.60;59.50;;;;;;5094399;28;20048;-79
2021/04/26 09:08:34;;;;;;;7.50;4.15;;;11.70;59.30;;;;;;5094109;28;20135;-78
2021/04/26 09:11:05;;;;;;;7.47;4.22;;;11.80;59.40;;;;;;5094016;28;20051;-78
2021/04/26 09:13:38;;;;;;;8.15;4.68;;;11.90;58.80;;;;;;5093941;28;20052;-79
2021/04/26 09:16:10;;;;;;;7.30;4.22;;;11.90;58.60;;;;;;5094324;28;20105;-79
2021/04/26 09:18:54;;;;;;;7.35;3.90;;;11.90;58.80;;;;;;5094192;28;20047;-79
2021/04/26 09:21:27;;;;;;;7.93;3.95;;;12.00;58.90;;;;;;5093713;28;20051;-78
2021/04/26 09:24:23;;;;;;;9.30;4.43;;;12.10;58.30;;;;;;5094036;28;20497;-78
2021/04/26 09:26:54;;;;;;;8.63;3.70;;;12.20;57.90;;;;;;5094558;28;20055;-81
2021/04/26 09:29:24;;;;;;;8.55;3.97;;;12.20;58.10;;;;;;5094342;28;20064;-80
2021/04/26 09:32:16;;;;;;;7.80;4.20;;;12.30;57.50;;;;;;5093573;28;20083;-75
2021/04/26 09:34:45;;;;;;;10.13;4.72;;;12.40;57.20;;;;;;5071720;28;20136;-81
2021/04/26 09:37:18;;;;;;;7.88;3.70;;;12.50;56.30;;;;;;5075268;28;20103;-83
2021/04/26 09:40:01;;;;;;;5.65;3.42;;;12.50;57.10;;;;;;5093664;28;20082;-82
2021/04/26 09:42:47;;;;;;;9.27;4.07;;;12.50;56.80;;;;;;5106021;28;20050;-79
2021/04/26 09:45:24;;;;;;;8.57;4.60;;;12.60;56.40;;;;;;5084503;28;20470;-79
2021/04/26 09:48:07;;;;;;;7.47;4.60;;;12.70;55.80;;;;;;5093395;28;20494;-80
2021/04/26 09:50:34;;;;;;;11.05;5.22;;;12.70;55.70;;;;;;5093528;28;20040;-80
2021/04/26 09:53:10;;;;;;;8.20;4.18;;;12.80;54.70;;;;;;5093471;28;20090;-79
2021/04/26 09:55:37;;;;;;;6.95;4.05;;;12.90;55.10;;;;;;5093610;28;20091;-79
2021/04/26 09:58:04;;;;;;;8.40;4.18;;;12.90;55.50;;;;;;5093234;28;20127;-80
2021/04/26 10:00:31;;;;;;;6.70;3.95;;;13.00;55.20;;;;;;5092300;28;20550;-79
2021/04/26 10:02:58;;;;;;;8.98;4.05;;;13.00;54.70;;;;;;5092602;28;20469;-78
2021/04/26 10:05:25;;;;;;;7.50;4.25;;;13.10;54.00;;;;;;5092691;28;20127;-80
2021/04/26 10:07:52;;;;;;;7.45;3.58;;;13.20;53.80;;;;;;5092476;28;20147;-79
2021/04/26 10:10:19;;;;;;;9.07;4.50;;;13.30;53.30;;;;;;5092967;28;20147;-78
2021/04/26 10:12:45;;;;;;;8.18;4.00;;;13.30;52.80;;;;;;5089342;28;20481;-78
2021/04/26 10:15:15;;;;;;;6.38;3.45;;;13.30;52.70;;;;;;5086966;28;20079;-80
2021/04/26 10:17:44;;;;;;;6.80;3.65;;;13.40;52.90;;;;;;5092394;28;20067;-80
2021/04/26 10:20:15;;;;;;;6.57;3.65;;;13.40;51.70;;;;;;5092739;28;20127;-79
2021/04/26 10:22:43;;;;;;;7.00;3.58;;;13.50;50.70;;;;;;5093024;28;20106;-78
2021/04/26 10:25:14;;;;;;;6.57;3.58;;;13.60;49.50;;;;;;5092790;28;20075;-79
2021/04/26 10:27:44;;;;;;;7.35;3.50;;;13.60;49.30;;;;;;5092487;28;20105;-78
2021/04/26 10:30:17;;;;;;;6.22;3.00;;;13.70;48.90;;;;;;5092023;28;20067;-79
2021/04/26 10:32:56;;;;;;;5.88;3.08;;;13.70;48.00;;;;;;5081820;28;20060;-80
2021/04/26 10:35:24;;;;;;;5.63;3.05;;;13.90;47.60;;;;;;5085299;28;20078;-80
2021/04/26 10:37:51;;;;;;;7.10;3.55;;;13.90;46.80;;;;;;5091844;28;20079;-77
2021/04/26 10:40:22;;;;;;;7.88;3.55;;;14.00;47.60;;;;;;5092084;28;20051;-78
2021/04/26 10:42:54;;;;;;;7.20;3.72;;;14.10;46.80;;;;;;5092671;28;20044;-78
2021/04/26 10:45:30;;;;;;;7.15;3.10;;;14.20;46.80;;;;;;5095076;28;20106;-78
2021/04/26 10:48:10;;;;;;;7.05;3.80;;;14.20;46.90;;;;;;5096182;28;20047;-79
2021/04/26 10:50:43;;;;;;;10.27;5.15;;;14.30;47.40;;;;;;5085292;28;20044;-76
2021/04/26 10:53:11;;;;;;;11.88;6.65;;;14.30;46.30;;;;;;5088124;28;20623;-79
2021/04/26 10:55:53;;;;;;;8.75;4.20;;;14.40;45.80;;;;;;5085693;28;20067;-76
2021/04/26 10:58:31;;;;;;;6.75;3.47;;;14.50;45.20;;;;;;5081780;28;20052;-77
2021/04/26 11:00:59;;;;;;;8.63;3.97;;;14.50;44.80;;;;;;5099257;28;20564;-79
2021/04/26 11:03:37;;;;;;;12.43;5.65;;;14.60;44.70;;;;;;5095345;28;20504;-78
2021/04/26 11:06:28;;;;;;;8.20;3.40;;;14.60;44.40;;;;;;5089688;28;20170;-79
2021/04/26 11:14:31;;;;;;;4.18;2.55;;;14.60;44.40;;;;;;5088054;28;20044;-77
2021/04/26 11:17:08;;;;;;;5.47;3.35;;;14.70;44.80;;;;;;5093240;28;20168;-79
2021/04/26 11:20:13;;;;;;;7.35;3.65;;;14.80;44.20;;;;;;5098095;28;20040;-79
2021/04/26 11:22:41;;;;;;;6.07;3.70;;;14.80;45.30;;;;;;5086648;28;20050;-79
2021/04/26 11:25:32;;;;;;;6.45;3.80;;;14.90;45.40;;;;;;5078927;28;20070;-79
2021/04/26 11:27:59;;;;;;;6.68;3.40;;;15.00;43.80;;;;;;5078161;28;20054;-77
2021/04/26 11:30:33;;;;;;;7.60;3.50;;;15.00;44.20;;;;;;5078351;28;20045;-77
2021/04/26 11:33:14;;;;;;;7.55;2.92;;;15.10;43.50;;;;;;5075788;28;20044;-77
2021/04/26 11:36:21;;;;;;;6.95;3.50;;;15.10;44.00;;;;;;5074928;28;20045;-77
2021/04/26 11:38:48;;;;;;;5.65;2.83;;;15.20;44.70;;;;;;5094057;28;20122;-79
2021/04/26 11:41:16;;;;;;;6.80;3.40;;;15.30;45.30;;;;;;5092619;28;20098;-80
2021/04/26 11:43:50;;;;;;;6.13;3.40;;;15.30;45.50;;;;;;5081805;28;20127;-79
2021/04/26 11:46:27;;;;;;;7.15;3.20;;;15.40;45.70;;;;;;5086670;28;20146;-79
2021/04/26 11:49:20;;;;;;;7.47;3.65;;;15.50;45.10;;;;;;5087172;28;20083;-78
2021/04/26 11:51:53;;;;;;;7.05;3.05;;;15.60;45.20;;;;;;5084816;28;20076;-78
2021/04/26 11:54:23;;;;;;;6.35;3.78;;;15.70;44.60;;;;;;5093225;28;20123;-77
2021/04/26 11:57:05;;;;;;;6.95;3.72;;;15.90;44.00;;;;;;5091960;28;20146;-77
2021/04/26 11:59:33;;;;;;;5.97;3.80;;;15.90;44.00;;;;;;5087007;28;20382;-78
2021/04/26 12:02:03;;;;;;;7.53;2.95;;;16.00;43.70;;;;;;5075522;28;20140;-77
2021/04/26 12:04:45;;;;;;;9.82;3.80;;;16.00;43.90;;;;;;5080040;28;20044;-77
2021/04/26 12:07:13;;;;;;;13.57;5.72;;;16.10;43.60;;;;;;5078459;28;20135;-77
2021/04/26 12:09:44;;;;;;;7.88;3.88;;;16.20;43.50;;;;;;5084196;28;20082;-78
2021/04/26 12:12:11;;;;;;;7.45;3.42;;;16.30;43.70;;;;;;5090264;28;20057;-75
2021/04/26 12:14:45;;;;;;;6.43;3.50;;;16.40;43.60;;;;;;5092240;28;20040;-78
2021/04/26 12:17:19;;;;;;;6.85;3.58;;;16.60;43.20;;;;;;5090119;28;20044;-77
2021/04/26 12:19:48;;;;;;;7.93;3.70;;;16.60;42.90;;;;;;5084968;28;20044;-77
2021/04/26 12:22:16;;;;;;;6.40;3.30;;;16.80;41.50;;;;;;5090351;28;20051;-78
2021/04/26 12:24:43;;;;;;;6.55;3.80;;;16.90;42.00;;;;;;5093513;28;20513;-78
2021/04/26 12:27:16;;;;;;;6.80;3.55;;;17.00;41.70;;;;;;5095016;28;20136;-81
2021/04/26 12:29:44;;;;;;;7.00;3.40;;;17.20;42.10;;;;;;5094681;28;20447;-82
2021/04/26 12:32:15;;;;;;;7.30;3.50;;;17.10;41.80;;;;;;5095055;28;20090;-85
2021/04/26 12:34:56;;;;;;;9.25;4.65;;;17.20;41.90;;;;;;5093251;28;20048;-88
2021/04/26 12:37:29;;;;;;;9.20;5.13;;;17.30;42.90;;;;;;5095496;28;20059;-82
2021/04/26 12:40:17;;;;;;;28.70;6.80;;;17.50;42.70;;;;;;5093098;28;20048;-80
2021/04/26 12:42:48;;;;;;;6.85;4.15;;;17.70;42.40;;;;;;5094818;28;20079;-76
2021/04/26 12:45:21;;;;;;;8.38;4.15;;;17.80;41.00;;;;;;5094264;28;20493;-78
2021/04/26 12:47:54;;;;;;;7.18;3.40;;;18.00;41.20;;;;;;5094373;28;20063;-79
2021/04/26 12:50:29;;;;;;;6.13;3.25;;;18.20;40.80;;;;;;5095670;28;20048;-80
2021/04/26 12:53:21;;;;;;;9.60;4.50;;;18.30;40.70;;;;;;5102625;27;20044;-78
2021/04/26 12:55:50;;;;;;;7.38;3.80;;;18.50;39.90;;;;;;5093546;28;20090;-75
2021/04/26 12:58:20;;;;;;;10.85;4.18;;;18.60;39.90;;;;;;5087696;28;20090;-78
2021/04/26 13:00:51;;;;;;;6.90;3.28;;;18.70;38.70;;;;;;5093840;28;20059;-76
2021/04/26 13:03:37;;;;;;;7.00;3.83;;;18.70;39.80;;;;;;5093196;28;20044;-76
2021/04/26 13:06:08;;;;;;;8.88;3.85;;;18.80;38.60;;;;;;5093617;28;20086;-76
2021/04/26 13:08:37;;;;;;;6.95;3.42;;;18.90;39.70;;;;;;5092597;28;20055;-81
2021/04/26 13:11:06;;;;;;;7.53;3.80;;;19.00;38.60;;;;;;5078143;28;20051;-78
2021/04/26 13:13:49;;;;;;;7.53;3.90;;;19.10;39.90;;;;;;5102791;28;20044;-83